sensor_id;sensor_type;location;lat;lon;timestamp;temperature;humidity
15288;DHT22;7745;48.708;9.026;2024-02-26T00:02:10;6.00;99.90
15288;DHT22;7745;48.708;9.026;2024-02-26T00:04:37;6.00;99.90
15288;DHT22;7745;48.708;9.026;2024-02-26T00:07:05;6.00;99.90
15288;DHT22;7745;48.708;9.026;2024-02-26T00:09:32;6.00;99.90
15288;DHT22;7745;48.708;9.026;2024-02-26T00:12:01;6.10;99.90
15288;DHT22;7745;48.708;9.026;2024-02-26T00:14:29;6.00;99.90
15288;DHT22;7745;48.708;9.026;2024-02-26T00:16:56;6.00;99.90
15288;DHT22;7745;48.708;9.026;2024-02-26T00:19:23;6.30;99.90
15288;DHT22;7745;48.708;9.026;2024-02-26T00:21:49;6.30;99.90
15288;DHT22;7745;48.708;9.026;2024-02-26T00:24:18;6.30;99.90
15288;DHT22;7745;48.708;9.026;2024-02-26T00:26:44;5.90;99.90
15288;DHT22;7745;48.708;9.026;2024-02-26T00:29:11;5.90;99.90
15288;DHT22;7745;48.708;9.026;2024-02-26T00:31:38;5.90;99.90
15288;DHT22;7745;48.708;9.026;2024-02-26T00:34:05;5.90;99.90
15288;DHT22;7745;48.708;9.026;2024-02-26T00:36:32;6.00;99.90
15288;DHT22;7745;48.708;9.026;2024-02-26T00:38:59;6.00;99.90
15288;DHT22;7745;48.708;9.026;2024-02-26T00:41:27;6.00;99.90
15288;DHT22;7745;48.708;9.026;2024-02-26T00:43:53;6.30;99.90
15288;DHT22;7745;48.708;9.026;2024-02-26T00:46:20;6.40;99.90
15288;DHT22;7745;48.708;9.026;2024-02-26T00:48:47;6.00;99.90
15288;DHT22;7745;48.708;9.026;2024-02-26T00:51:14;6.00;99.90
15288;DHT22;7745;48.708;9.026;2024-02-26T00:53:41;6.00;99.90
15288;DHT22;7745;48.708;9.026;2024-02-26T00:56:08;6.10;99.90
15288;DHT22;7745;48.708;9.026;2024-02-26T00:58:36;6.00;99.90
15288;DHT22;7745;48.708;9.026;2024-02-26T01:01:03;6.40;99.90
15288;DHT22;7745;48.708;9.026;2024-02-26T01:03:30;6.30;99.90
15288;DHT22;7745;48.708;9.026;2024-02-26T01:05:56;6.30;99.90
15288;DHT22;7745;48.708;9.026;2024-02-26T01:08:23;6.30;99.90
15288;DHT22;7745;48.708;9.026;2024-02-26T01:10:50;6.50;99.90
15288;DHT22;7745;48.708;9.026;2024-02-26T01:13:17;6.50;99.90
15288;DHT22;7745;48.708;9.026;2024-02-26T01:15:45;6.90;99.90
15288;DHT22;7745;48.708;9.026;2024-02-26T01:18:12;6.50;99.90
15288;DHT22;7745;48.708;9.026;2024-02-26T01:20:39;6.50;99.90
15288;DHT22;7745;48.708;9.026;2024-02-26T01:23:05;6.50;99.90
15288;DHT22;7745;48.708;9.026;2024-02-26T01:25:32;6.90;99.90
15288;DHT22;7745;48.708;9.026;2024-02-26T01:27:59;6.40;99.90
15288;DHT22;7745;48.708;9.026;2024-02-26T01:30:26;6.40;99.90
15288;DHT22;7745;48.708;9.026;2024-02-26T01:32:54;6.40;99.90
15288;DHT22;7745;48.708;9.026;2024-02-26T01:35:20;6.40;99.90
15288;DHT22;7745;48.708;9.026;2024-02-26T01:37:47;6.40;99.90
15288;DHT22;7745;48.708;9.026;2024-02-26T01:40:14;6.40;99.90
15288;DHT22;7745;48.708;9.026;2024-02-26T01:42:44;6.40;99.90
15288;DHT22;7745;48.708;9.026;2024-02-26T01:45:14;6.40;99.90
15288;DHT22;7745;48.708;9.026;2024-02-26T01:47:46;6.40;99.90
15288;DHT22;7745;48.708;9.026;2024-02-26T01:50:14;6.50;99.90
15288;DHT22;7745;48.708;9.026;2024-02-26T01:52:41;6.50;99.90
15288;DHT22;7745;48.708;9.026;2024-02-26T01:55:08;6.50;99.90
15288;DHT22;7745;48.708;9.026;2024-02-26T01:57:35;6.50;99.90
15288;DHT22;7745;48.708;9.026;2024-02-26T02:00:03;6.50;99.90
15288;DHT22;7745;48.708;9.026;2024-02-26T02:02:31;6.50;99.90
15288;DHT22;7745;48.708;9.026;2024-02-26T02:04:58;6.50;99.90
15288;DHT22;7745;48.708;9.026;2024-02-26T02:07:26;6.60;99.90
15288;DHT22;7745;48.708;9.026;2024-02-26T02:09:53;6.60;99.90
15288;DHT22;7745;48.708;9.026;2024-02-26T02:12:21;6.70;99.90
15288;DHT22;7745;48.708;9.026;2024-02-26T02:14:48;6.60;99.90
15288;DHT22;7745;48.708;9.026;2024-02-26T02:17:15;6.60;99.90
15288;DHT22;7745;48.708;9.026;2024-02-26T02:19:42;6.60;99.90
15288;DHT22;7745;48.708;9.026;2024-02-26T02:22:10;6.60;99.90
15288;DHT22;7745;48.708;9.026;2024-02-26T02:24:37;6.60;99.90
15288;DHT22;7745;48.708;9.026;2024-02-26T02:27:04;6.60;99.90
15288;DHT22;7745;48.708;9.026;2024-02-26T02:29:31;6.60;99.90
15288;DHT22;7745;48.708;9.026;2024-02-26T02:31:59;6.60;99.90
15288;DHT22;7745;48.708;9.026;2024-02-26T02:34:27;6.60;99.90
15288;DHT22;7745;48.708;9.026;2024-02-26T02:36:54;6.70;99.90
15288;DHT22;7745;48.708;9.026;2024-02-26T02:39:23;6.70;99.90
15288;DHT22;7745;48.708;9.026;2024-02-26T02:41:49;6.60;99.90
15288;DHT22;7745;48.708;9.026;2024-02-26T02:44:16;6.60;99.90
15288;DHT22;7745;48.708;9.026;2024-02-26T02:46:43;7.00;99.90
15288;DHT22;7745;48.708;9.026;2024-02-26T02:49:10;6.80;99.90
15288;DHT22;7745;48.708;9.026;2024-02-26T02:51:37;6.60;99.90
15288;DHT22;7745;48.708;9.026;2024-02-26T02:54:04;6.60;99.90
15288;DHT22;7745;48.708;9.026;2024-02-26T02:56:32;6.80;99.90
15288;DHT22;7745;48.708;9.026;2024-02-26T02:58:59;6.90;99.90
15288;DHT22;7745;48.708;9.026;2024-02-26T03:01:25;7.00;99.90
15288;DHT22;7745;48.708;9.026;2024-02-26T03:03:52;7.30;99.90
15288;DHT22;7745;48.708;9.026;2024-02-26T03:06:19;7.00;99.90
15288;DHT22;7745;48.708;9.026;2024-02-26T03:08:46;7.00;99.90
15288;DHT22;7745;48.708;9.026;2024-02-26T03:11:14;7.20;99.90
15288;DHT22;7745;48.708;9.026;2024-02-26T03:13:42;7.30;99.90
15288;DHT22;7745;48.708;9.026;2024-02-26T03:16:09;7.30;99.90
15288;DHT22;7745;48.708;9.026;2024-02-26T03:18:38;7.40;99.90
15288;DHT22;7745;48.708;9.026;2024-02-26T03:21:05;7.50;99.90
15288;DHT22;7745;48.708;9.026;2024-02-26T03:23:32;7.50;99.90
15288;DHT22;7745;48.708;9.026;2024-02-26T03:26:02;7.60;99.90
15288;DHT22;7745;48.708;9.026;2024-02-26T03:28:29;7.50;99.90
15288;DHT22;7745;48.708;9.026;2024-02-26T03:30:57;7.40;99.90
15288;DHT22;7745;48.708;9.026;2024-02-26T03:33:24;7.40;99.90
15288;DHT22;7745;48.708;9.026;2024-02-26T03:35:51;7.30;99.90
15288;DHT22;7745;48.708;9.026;2024-02-26T03:38:18;7.40;99.90
15288;DHT22;7745;48.708;9.026;2024-02-26T03:40:45;7.20;99.90
15288;DHT22;7745;48.708;9.026;2024-02-26T03:43:12;7.20;99.90
15288;DHT22;7745;48.708;9.026;2024-02-26T03:45:38;7.20;99.90
15288;DHT22;7745;48.708;9.026;2024-02-26T03:48:07;7.10;99.90
15288;DHT22;7745;48.708;9.026;2024-02-26T03:50:34;7.00;99.90
15288;DHT22;7745;48.708;9.026;2024-02-26T03:53:01;7.30;99.90
15288;DHT22;7745;48.708;9.026;2024-02-26T03:55:28;6.90;99.90
15288;DHT22;7745;48.708;9.026;2024-02-26T03:57:54;6.90;99.90
15288;DHT22;7745;48.708;9.026;2024-02-26T04:00:21;6.80;99.90
15288;DHT22;7745;48.708;9.026;2024-02-26T04:02:48;7.30;99.90
15288;DHT22;7745;48.708;9.026;2024-02-26T04:05:16;6.70;99.90
15288;DHT22;7745;48.708;9.026;2024-02-26T04:07:43;6.70;99.90
15288;DHT22;7745;48.708;9.026;2024-02-26T04:10:10;6.80;99.90
15288;DHT22;7745;48.708;9.026;2024-02-26T04:12:38;6.80;99.90
15288;DHT22;7745;48.708;9.026;2024-02-26T04:15:06;6.80;99.90
15288;DHT22;7745;48.708;9.026;2024-02-26T04:17:33;6.80;99.90
15288;DHT22;7745;48.708;9.026;2024-02-26T04:20:00;6.80;99.90
15288;DHT22;7745;48.708;9.026;2024-02-26T04:22:28;7.00;99.90
15288;DHT22;7745;48.708;9.026;2024-02-26T04:24:55;6.70;99.90
15288;DHT22;7745;48.708;9.026;2024-02-26T04:27:22;6.70;99.90
15288;DHT22;7745;48.708;9.026;2024-02-26T04:29:49;6.70;99.90
15288;DHT22;7745;48.708;9.026;2024-02-26T04:32:15;6.60;99.90
15288;DHT22;7745;48.708;9.026;2024-02-26T04:34:42;6.80;99.90
15288;DHT22;7745;48.708;9.026;2024-02-26T04:37:09;6.60;99.90
15288;DHT22;7745;48.708;9.026;2024-02-26T04:39:37;6.90;99.90
15288;DHT22;7745;48.708;9.026;2024-02-26T04:42:04;6.50;99.90
15288;DHT22;7745;48.708;9.026;2024-02-26T04:44:31;6.50;99.90
15288;DHT22;7745;48.708;9.026;2024-02-26T04:46:58;6.50;99.90
15288;DHT22;7745;48.708;9.026;2024-02-26T04:49:27;6.50;99.90
15288;DHT22;7745;48.708;9.026;2024-02-26T04:51:53;6.60;99.90
15288;DHT22;7745;48.708;9.026;2024-02-26T04:54:20;6.70;99.90
15288;DHT22;7745;48.708;9.026;2024-02-26T04:56:49;6.70;99.90
15288;DHT22;7745;48.708;9.026;2024-02-26T04:59:15;6.70;99.90
15288;DHT22;7745;48.708;9.026;2024-02-26T05:01:42;6.70;99.90
15288;DHT22;7745;48.708;9.026;2024-02-26T05:04:09;6.70;99.90
15288;DHT22;7745;48.708;9.026;2024-02-26T05:06:36;6.70;99.90
15288;DHT22;7745;48.708;9.026;2024-02-26T05:09:04;6.60;99.90
15288;DHT22;7745;48.708;9.026;2024-02-26T05:11:30;6.60;99.90
15288;DHT22;7745;48.708;9.026;2024-02-26T05:13:59;6.60;99.90
15288;DHT22;7745;48.708;9.026;2024-02-26T05:16:26;6.60;99.90
15288;DHT22;7745;48.708;9.026;2024-02-26T05:18:55;6.60;99.90
15288;DHT22;7745;48.708;9.026;2024-02-26T05:21:22;6.60;99.90
15288;DHT22;7745;48.708;9.026;2024-02-26T05:23:49;6.60;99.90
15288;DHT22;7745;48.708;9.026;2024-02-26T05:26:19;6.60;99.90
15288;DHT22;7745;48.708;9.026;2024-02-26T05:28:47;6.50;99.90
15288;DHT22;7745;48.708;9.026;2024-02-26T05:31:15;6.50;99.90
15288;DHT22;7745;48.708;9.026;2024-02-26T05:33:42;6.50;99.90
15288;DHT22;7745;48.708;9.026;2024-02-26T05:36:09;6.50;99.90
15288;DHT22;7745;48.708;9.026;2024-02-26T05:38:36;6.50;99.90
15288;DHT22;7745;48.708;9.026;2024-02-26T05:41:02;6.50;99.90
15288;DHT22;7745;48.708;9.026;2024-02-26T05:43:30;6.50;99.90
15288;DHT22;7745;48.708;9.026;2024-02-26T05:45:57;6.50;99.90
15288;DHT22;7745;48.708;9.026;2024-02-26T05:48:25;6.50;99.90
15288;DHT22;7745;48.708;9.026;2024-02-26T05:50:52;6.40;99.90
15288;DHT22;7745;48.708;9.026;2024-02-26T05:53:18;6.40;99.90
15288;DHT22;7745;48.708;9.026;2024-02-26T05:55:57;6.40;99.90
15288;DHT22;7745;48.708;9.026;2024-02-26T05:58:24;6.40;99.90
15288;DHT22;7745;48.708;9.026;2024-02-26T06:00:51;6.40;99.90
15288;DHT22;7745;48.708;9.026;2024-02-26T06:03:17;6.30;99.90
15288;DHT22;7745;48.708;9.026;2024-02-26T06:05:46;6.20;99.90
15288;DHT22;7745;48.708;9.026;2024-02-26T06:08:13;6.40;99.90
15288;DHT22;7745;48.708;9.026;2024-02-26T06:10:40;6.40;99.90
15288;DHT22;7745;48.708;9.026;2024-02-26T06:13:07;6.10;99.90
15288;DHT22;7745;48.708;9.026;2024-02-26T06:15:39;6.00;99.90
15288;DHT22;7745;48.708;9.026;2024-02-26T06:18:06;6.30;99.90
15288;DHT22;7745;48.708;9.026;2024-02-26T06:20:32;6.00;99.90
15288;DHT22;7745;48.708;9.026;2024-02-26T06:23:01;6.00;99.90
15288;DHT22;7745;48.708;9.026;2024-02-26T06:25:27;6.00;99.90
15288;DHT22;7745;48.708;9.026;2024-02-26T06:27:55;6.00;99.90
15288;DHT22;7745;48.708;9.026;2024-02-26T06:30:22;5.90;99.90
15288;DHT22;7745;48.708;9.026;2024-02-26T06:32:49;5.90;99.90
15288;DHT22;7745;48.708;9.026;2024-02-26T06:35:16;5.90;99.90
15288;DHT22;7745;48.708;9.026;2024-02-26T06:37:42;6.50;99.90
15288;DHT22;7745;48.708;9.026;2024-02-26T06:40:11;5.90;99.90
15288;DHT22;7745;48.708;9.026;2024-02-26T06:42:38;5.90;99.90
15288;DHT22;7745;48.708;9.026;2024-02-26T06:45:05;5.90;99.90
15288;DHT22;7745;48.708;9.026;2024-02-26T06:47:32;5.90;99.90
15288;DHT22;7745;48.708;9.026;2024-02-26T06:49:59;5.90;99.90
15288;DHT22;7745;48.708;9.026;2024-02-26T06:52:26;6.00;99.90
15288;DHT22;7745;48.708;9.026;2024-02-26T06:54:53;6.20;99.90
15288;DHT22;7745;48.708;9.026;2024-02-26T06:57:21;6.00;99.90
15288;DHT22;7745;48.708;9.026;2024-02-26T06:59:49;6.10;99.90
15288;DHT22;7745;48.708;9.026;2024-02-26T07:02:16;6.10;99.90
15288;DHT22;7745;48.708;9.026;2024-02-26T07:04:43;6.20;99.90
15288;DHT22;7745;48.708;9.026;2024-02-26T07:07:09;6.10;99.90
15288;DHT22;7745;48.708;9.026;2024-02-26T07:09:37;6.10;99.90
15288;DHT22;7745;48.708;9.026;2024-02-26T07:12:04;6.30;99.90
15288;DHT22;7745;48.708;9.026;2024-02-26T07:14:32;6.30;99.90
15288;DHT22;7745;48.708;9.026;2024-02-26T07:17:00;6.30;99.90
15288;DHT22;7745;48.708;9.026;2024-02-26T07:19:27;6.40;99.90
15288;DHT22;7745;48.708;9.026;2024-02-26T07:21:54;6.60;99.90
15288;DHT22;7745;48.708;9.026;2024-02-26T07:24:21;6.50;99.90
15288;DHT22;7745;48.708;9.026;2024-02-26T07:26:48;7.00;99.90
15288;DHT22;7745;48.708;9.026;2024-02-26T07:29:15;6.70;99.90
15288;DHT22;7745;48.708;9.026;2024-02-26T07:31:49;6.70;99.90
15288;DHT22;7745;48.708;9.026;2024-02-26T07:34:16;6.80;99.90
15288;DHT22;7745;48.708;9.026;2024-02-26T07:36:43;6.80;99.90
15288;DHT22;7745;48.708;9.026;2024-02-26T07:39:10;6.80;99.90
15288;DHT22;7745;48.708;9.026;2024-02-26T07:41:37;6.80;99.90
15288;DHT22;7745;48.708;9.026;2024-02-26T07:44:05;7.00;99.90
15288;DHT22;7745;48.708;9.026;2024-02-26T07:46:31;6.90;99.90
15288;DHT22;7745;48.708;9.026;2024-02-26T07:49:00;7.10;99.90
15288;DHT22;7745;48.708;9.026;2024-02-26T07:51:26;7.10;99.90
15288;DHT22;7745;48.708;9.026;2024-02-26T07:53:53;6.90;99.90
15288;DHT22;7745;48.708;9.026;2024-02-26T07:56:20;7.20;99.90
15288;DHT22;7745;48.708;9.026;2024-02-26T07:58:55;7.00;99.90
15288;DHT22;7745;48.708;9.026;2024-02-26T08:01:23;7.00;99.90
15288;DHT22;7745;48.708;9.026;2024-02-26T08:03:51;7.10;99.90
15288;DHT22;7745;48.708;9.026;2024-02-26T08:06:20;7.40;99.90
15288;DHT22;7745;48.708;9.026;2024-02-26T08:08:47;7.00;99.90
15288;DHT22;7745;48.708;9.026;2024-02-26T08:11:16;7.10;99.90
15288;DHT22;7745;48.708;9.026;2024-02-26T08:13:43;7.20;99.90
15288;DHT22;7745;48.708;9.026;2024-02-26T08:16:12;7.20;99.90
15288;DHT22;7745;48.708;9.026;2024-02-26T08:18:39;7.30;99.90
15288;DHT22;7745;48.708;9.026;2024-02-26T08:21:06;7.40;99.90
15288;DHT22;7745;48.708;9.026;2024-02-26T08:23:35;7.40;99.90
15288;DHT22;7745;48.708;9.026;2024-02-26T08:26:02;7.70;99.90
15288;DHT22;7745;48.708;9.026;2024-02-26T08:28:32;7.60;99.90
15288;DHT22;7745;48.708;9.026;2024-02-26T08:30:59;7.70;99.90
15288;DHT22;7745;48.708;9.026;2024-02-26T08:33:26;7.80;99.90
15288;DHT22;7745;48.708;9.026;2024-02-26T08:35:54;7.90;99.90
15288;DHT22;7745;48.708;9.026;2024-02-26T08:38:22;8.60;99.90
15288;DHT22;7745;48.708;9.026;2024-02-26T08:40:52;8.00;99.90
15288;DHT22;7745;48.708;9.026;2024-02-26T08:43:18;8.00;99.90
15288;DHT22;7745;48.708;9.026;2024-02-26T08:45:45;8.10;99.90
15288;DHT22;7745;48.708;9.026;2024-02-26T08:48:13;8.10;99.90
15288;DHT22;7745;48.708;9.026;2024-02-26T08:50:41;8.40;99.90
15288;DHT22;7745;48.708;9.026;2024-02-26T08:53:08;8.20;99.90
15288;DHT22;7745;48.708;9.026;2024-02-26T08:55:37;8.10;99.90
15288;DHT22;7745;48.708;9.026;2024-02-26T08:58:08;8.10;99.90
15288;DHT22;7745;48.708;9.026;2024-02-26T09:00:35;8.10;99.90
15288;DHT22;7745;48.708;9.026;2024-02-26T09:03:04;7.90;99.90
15288;DHT22;7745;48.708;9.026;2024-02-26T09:05:34;8.00;99.90
15288;DHT22;7745;48.708;9.026;2024-02-26T09:08:01;8.00;99.90
15288;DHT22;7745;48.708;9.026;2024-02-26T09:10:28;8.00;99.90
15288;DHT22;7745;48.708;9.026;2024-02-26T09:13:00;8.40;99.90
15288;DHT22;7745;48.708;9.026;2024-02-26T09:15:31;8.10;99.90
15288;DHT22;7745;48.708;9.026;2024-02-26T09:17:58;8.20;99.90
15288;DHT22;7745;48.708;9.026;2024-02-26T09:20:31;8.60;99.90
15288;DHT22;7745;48.708;9.026;2024-02-26T09:23:00;8.30;99.90
15288;DHT22;7745;48.708;9.026;2024-02-26T09:25:28;8.50;99.90
15288;DHT22;7745;48.708;9.026;2024-02-26T09:27:55;8.40;99.90
15288;DHT22;7745;48.708;9.026;2024-02-26T09:30:26;8.40;99.90
15288;DHT22;7745;48.708;9.026;2024-02-26T09:32:54;8.70;99.90
15288;DHT22;7745;48.708;9.026;2024-02-26T09:35:24;8.60;99.90
15288;DHT22;7745;48.708;9.026;2024-02-26T09:37:54;8.70;99.90
15288;DHT22;7745;48.708;9.026;2024-02-26T09:40:26;8.80;99.90
15288;DHT22;7745;48.708;9.026;2024-02-26T09:43:00;9.10;99.90
15288;DHT22;7745;48.708;9.026;2024-02-26T09:45:30;9.00;99.90
15288;DHT22;7745;48.708;9.026;2024-02-26T09:48:03;9.00;99.90
15288;DHT22;7745;48.708;9.026;2024-02-26T09:50:35;9.10;99.90
15288;DHT22;7745;48.708;9.026;2024-02-26T09:53:05;9.50;99.90
15288;DHT22;7745;48.708;9.026;2024-02-26T09:55:44;9.60;99.90
15288;DHT22;7745;48.708;9.026;2024-02-26T09:58:15;9.60;99.90
15288;DHT22;7745;48.708;9.026;2024-02-26T10:00:51;9.70;99.90
15288;DHT22;7745;48.708;9.026;2024-02-26T10:03:27;10.30;99.90
15288;DHT22;7745;48.708;9.026;2024-02-26T10:05:55;10.10;99.90
15288;DHT22;7745;48.708;9.026;2024-02-26T10:08:38;10.10;99.90
15288;DHT22;7745;48.708;9.026;2024-02-26T10:11:07;10.40;99.90
15288;DHT22;7745;48.708;9.026;2024-02-26T10:13:34;10.20;99.90
15288;DHT22;7745;48.708;9.026;2024-02-26T10:16:01;10.30;99.90
15288;DHT22;7745;48.708;9.026;2024-02-26T10:18:48;10.40;99.90
15288;DHT22;7745;48.708;9.026;2024-02-26T10:21:19;10.60;99.90
15288;DHT22;7745;48.708;9.026;2024-02-26T10:23:47;10.60;99.90
15288;DHT22;7745;48.708;9.026;2024-02-26T10:26:16;10.60;99.90
15288;DHT22;7745;48.708;9.026;2024-02-26T10:28:44;10.70;99.90
15288;DHT22;7745;48.708;9.026;2024-02-26T10:31:13;11.10;99.90
15288;DHT22;7745;48.708;9.026;2024-02-26T10:33:42;10.70;99.90
15288;DHT22;7745;48.708;9.026;2024-02-26T10:36:15;11.20;99.90
15288;DHT22;7745;48.708;9.026;2024-02-26T10:38:42;10.90;99.90
15288;DHT22;7745;48.708;9.026;2024-02-26T10:41:13;11.00;99.90
15288;DHT22;7745;48.708;9.026;2024-02-26T10:44:17;11.60;99.90
15288;DHT22;7745;48.708;9.026;2024-02-26T10:47:24;11.00;99.90
15288;DHT22;7745;48.708;9.026;2024-02-26T10:53:29;11.10;99.90
15288;DHT22;7745;48.708;9.026;2024-02-26T10:56:02;11.20;99.90
15288;DHT22;7745;48.708;9.026;2024-02-26T10:58:31;11.10;99.90
15288;DHT22;7745;48.708;9.026;2024-02-26T11:00:58;11.10;99.90
15288;DHT22;7745;48.708;9.026;2024-02-26T11:03:25;11.10;99.90
15288;DHT22;7745;48.708;9.026;2024-02-26T11:05:53;11.20;99.90
15288;DHT22;7745;48.708;9.026;2024-02-26T11:08:22;11.20;99.90
15288;DHT22;7745;48.708;9.026;2024-02-26T11:10:53;11.30;99.90
15288;DHT22;7745;48.708;9.026;2024-02-26T11:13:21;11.30;99.90
15288;DHT22;7745;48.708;9.026;2024-02-26T11:15:55;11.40;99.90
15288;DHT22;7745;48.708;9.026;2024-02-26T11:18:23;11.30;99.90
15288;DHT22;7745;48.708;9.026;2024-02-26T11:21:03;11.50;99.90
15288;DHT22;7745;48.708;9.026;2024-02-26T11:23:46;11.10;99.90
15288;DHT22;7745;48.708;9.026;2024-02-26T11:26:29;11.00;99.90
15288;DHT22;7745;48.708;9.026;2024-02-26T11:28:59;10.80;99.90
15288;DHT22;7745;48.708;9.026;2024-02-26T11:31:27;10.90;99.90
15288;DHT22;7745;48.708;9.026;2024-02-26T11:33:53;10.90;99.90
15288;DHT22;7745;48.708;9.026;2024-02-26T11:36:20;10.90;99.90
15288;DHT22;7745;48.708;9.026;2024-02-26T11:38:47;10.90;99.90
15288;DHT22;7745;48.708;9.026;2024-02-26T11:41:17;10.90;99.90
15288;DHT22;7745;48.708;9.026;2024-02-26T11:43:52;11.00;99.90
15288;DHT22;7745;48.708;9.026;2024-02-26T11:46:27;11.10;99.90
15288;DHT22;7745;48.708;9.026;2024-02-26T11:48:58;11.20;99.90
15288;DHT22;7745;48.708;9.026;2024-02-26T11:51:32;11.30;99.90
15288;DHT22;7745;48.708;9.026;2024-02-26T11:53:59;11.30;99.90
15288;DHT22;7745;48.708;9.026;2024-02-26T11:56:26;11.30;99.90
15288;DHT22;7745;48.708;9.026;2024-02-26T11:58:59;11.20;99.90
15288;DHT22;7745;48.708;9.026;2024-02-26T12:01:42;11.20;99.90
15288;DHT22;7745;48.708;9.026;2024-02-26T12:04:14;11.10;99.90
15288;DHT22;7745;48.708;9.026;2024-02-26T12:06:46;11.10;99.90
15288;DHT22;7745;48.708;9.026;2024-02-26T12:09:30;11.10;99.90
15288;DHT22;7745;48.708;9.026;2024-02-26T12:11:58;11.10;99.90
15288;DHT22;7745;48.708;9.026;2024-02-26T12:14:26;11.10;99.90
15288;DHT22;7745;48.708;9.026;2024-02-26T12:16:55;11.10;99.90
15288;DHT22;7745;48.708;9.026;2024-02-26T12:19:24;11.10;99.90
15288;DHT22;7745;48.708;9.026;2024-02-26T12:21:52;11.20;99.90
15288;DHT22;7745;48.708;9.026;2024-02-26T12:24:21;11.20;99.90
15288;DHT22;7745;48.708;9.026;2024-02-26T12:26:48;11.10;99.90
15288;DHT22;7745;48.708;9.026;2024-02-26T12:29:15;11.10;99.90
15288;DHT22;7745;48.708;9.026;2024-02-26T12:31:44;11.20;99.90
15288;DHT22;7745;48.708;9.026;2024-02-26T12:34:11;11.20;99.90
15288;DHT22;7745;48.708;9.026;2024-02-26T12:36:42;11.30;99.90
15288;DHT22;7745;48.708;9.026;2024-02-26T12:39:09;11.50;99.90
15288;DHT22;7745;48.708;9.026;2024-02-26T12:41:38;11.60;99.90
15288;DHT22;7745;48.708;9.026;2024-02-26T12:44:09;11.60;99.90
15288;DHT22;7745;48.708;9.026;2024-02-26T12:46:39;11.80;99.90
15288;DHT22;7745;48.708;9.026;2024-02-26T12:49:08;11.80;99.90
15288;DHT22;7745;48.708;9.026;2024-02-26T12:51:35;11.80;99.90
15288;DHT22;7745;48.708;9.026;2024-02-26T12:54:02;11.80;99.90
15288;DHT22;7745;48.708;9.026;2024-02-26T12:56:29;12.00;99.90
15288;DHT22;7745;48.708;9.026;2024-02-26T12:58:56;12.00;99.90
15288;DHT22;7745;48.708;9.026;2024-02-26T13:01:25;12.10;99.90
15288;DHT22;7745;48.708;9.026;2024-02-26T13:03:52;12.20;99.90
15288;DHT22;7745;48.708;9.026;2024-02-26T13:06:21;12.30;99.90
15288;DHT22;7745;48.708;9.026;2024-02-26T13:08:49;12.40;99.90
15288;DHT22;7745;48.708;9.026;2024-02-26T13:11:16;12.50;99.90
15288;DHT22;7745;48.708;9.026;2024-02-26T13:13:47;12.60;99.90
15288;DHT22;7745;48.708;9.026;2024-02-26T13:16:15;12.60;99.90
15288;DHT22;7745;48.708;9.026;2024-02-26T13:18:42;12.60;99.90
15288;DHT22;7745;48.708;9.026;2024-02-26T13:21:11;12.60;99.90
15288;DHT22;7745;48.708;9.026;2024-02-26T13:23:39;12.50;99.90
15288;DHT22;7745;48.708;9.026;2024-02-26T13:26:07;12.40;99.90
15288;DHT22;7745;48.708;9.026;2024-02-26T13:28:35;12.30;99.90
15288;DHT22;7745;48.708;9.026;2024-02-26T13:31:02;12.30;99.90
15288;DHT22;7745;48.708;9.026;2024-02-26T13:33:30;12.40;99.90
15288;DHT22;7745;48.708;9.026;2024-02-26T13:35:58;12.30;99.90
15288;DHT22;7745;48.708;9.026;2024-02-26T13:38:26;12.20;99.90
15288;DHT22;7745;48.708;9.026;2024-02-26T13:40:55;12.20;99.90
15288;DHT22;7745;48.708;9.026;2024-02-26T13:43:22;12.10;99.90
15288;DHT22;7745;48.708;9.026;2024-02-26T13:45:49;12.10;99.90
15288;DHT22;7745;48.708;9.026;2024-02-26T13:48:16;12.10;99.90
15288;DHT22;7745;48.708;9.026;2024-02-26T13:50:43;12.20;99.90
15288;DHT22;7745;48.708;9.026;2024-02-26T13:53:11;12.30;99.90
15288;DHT22;7745;48.708;9.026;2024-02-26T13:55:40;12.40;99.90
15288;DHT22;7745;48.708;9.026;2024-02-26T13:58:11;12.40;99.90
15288;DHT22;7745;48.708;9.026;2024-02-26T14:00:39;12.50;99.90
15288;DHT22;7745;48.708;9.026;2024-02-26T14:03:07;12.60;99.90
15288;DHT22;7745;48.708;9.026;2024-02-26T14:05:34;12.60;99.90
15288;DHT22;7745;48.708;9.026;2024-02-26T14:08:01;12.70;99.90
15288;DHT22;7745;48.708;9.026;2024-02-26T14:10:28;12.70;99.90
15288;DHT22;7745;48.708;9.026;2024-02-26T14:12:56;12.70;99.90
15288;DHT22;7745;48.708;9.026;2024-02-26T14:15:29;12.70;99.90
15288;DHT22;7745;48.708;9.026;2024-02-26T14:17:57;12.70;99.90
15288;DHT22;7745;48.708;9.026;2024-02-26T14:20:24;12.70;99.90
15288;DHT22;7745;48.708;9.026;2024-02-26T14:22:52;12.70;99.90
15288;DHT22;7745;48.708;9.026;2024-02-26T14:25:19;12.70;99.90
15288;DHT22;7745;48.708;9.026;2024-02-26T14:27:46;12.70;99.90
15288;DHT22;7745;48.708;9.026;2024-02-26T14:30:14;12.70;99.90
15288;DHT22;7745;48.708;9.026;2024-02-26T14:32:45;12.70;99.90
15288;DHT22;7745;48.708;9.026;2024-02-26T14:35:13;12.70;99.90
15288;DHT22;7745;48.708;9.026;2024-02-26T14:37:40;12.60;99.90
15288;DHT22;7745;48.708;9.026;2024-02-26T14:40:08;12.60;99.90
15288;DHT22;7745;48.708;9.026;2024-02-26T14:42:35;12.40;99.90
15288;DHT22;7745;48.708;9.026;2024-02-26T14:45:03;12.30;99.90
15288;DHT22;7745;48.708;9.026;2024-02-26T14:47:31;12.30;99.90
15288;DHT22;7745;48.708;9.026;2024-02-26T14:49:59;12.20;99.90
15288;DHT22;7745;48.708;9.026;2024-02-26T14:52:27;12.20;99.90
15288;DHT22;7745;48.708;9.026;2024-02-26T14:54:53;12.20;99.90
15288;DHT22;7745;48.708;9.026;2024-02-26T14:57:20;12.20;99.90
15288;DHT22;7745;48.708;9.026;2024-02-26T15:00:01;12.20;99.90
15288;DHT22;7745;48.708;9.026;2024-02-26T15:02:55;12.10;99.90
15288;DHT22;7745;48.708;9.026;2024-02-26T15:05:38;12.10;99.90
15288;DHT22;7745;48.708;9.026;2024-02-26T15:08:05;12.10;99.90
15288;DHT22;7745;48.708;9.026;2024-02-26T15:10:34;12.10;99.90
15288;DHT22;7745;48.708;9.026;2024-02-26T15:13:01;12.00;99.90
15288;DHT22;7745;48.708;9.026;2024-02-26T15:15:30;12.10;99.90
15288;DHT22;7745;48.708;9.026;2024-02-26T15:17:56;12.10;99.90
15288;DHT22;7745;48.708;9.026;2024-02-26T15:20:23;12.10;99.90
15288;DHT22;7745;48.708;9.026;2024-02-26T15:22:52;12.10;99.90
15288;DHT22;7745;48.708;9.026;2024-02-26T15:25:18;12.10;99.90
15288;DHT22;7745;48.708;9.026;2024-02-26T15:27:46;12.10;99.90
15288;DHT22;7745;48.708;9.026;2024-02-26T15:30:13;12.00;99.90
15288;DHT22;7745;48.708;9.026;2024-02-26T15:32:40;12.00;99.90
15288;DHT22;7745;48.708;9.026;2024-02-26T15:35:09;12.00;99.90
15288;DHT22;7745;48.708;9.026;2024-02-26T15:37:38;12.00;99.90
15288;DHT22;7745;48.708;9.026;2024-02-26T15:40:08;12.00;99.90
15288;DHT22;7745;48.708;9.026;2024-02-26T15:42:36;12.00;99.90
15288;DHT22;7745;48.708;9.026;2024-02-26T15:45:03;12.00;99.90
15288;DHT22;7745;48.708;9.026;2024-02-26T15:47:30;12.00;99.90
15288;DHT22;7745;48.708;9.026;2024-02-26T15:49:57;12.00;99.90
15288;DHT22;7745;48.708;9.026;2024-02-26T15:52:24;12.00;99.90
15288;DHT22;7745;48.708;9.026;2024-02-26T15:54:51;11.90;99.90
15288;DHT22;7745;48.708;9.026;2024-02-26T15:57:19;11.90;99.90
15288;DHT22;7745;48.708;9.026;2024-02-26T15:59:46;11.80;99.90
15288;DHT22;7745;48.708;9.026;2024-02-26T16:02:13;11.80;99.90
15288;DHT22;7745;48.708;9.026;2024-02-26T16:04:41;11.80;99.90
15288;DHT22;7745;48.708;9.026;2024-02-26T16:07:09;11.70;99.90